Time;durP1;ratioP1;P1;durP2;ratioP2;P2;SDS_P1;SDS_P2;PMS_P1;PMS_P2;Temp;Humidity;BMP_temperature;BMP_pressure;BME280_temperature;BME280_humidity;BME280_pressure;Samples;Min_cycle;Max_cycle;Signal;HPM_P1;HPM_P2
2023/08/20 00:01:44;;;;;;;;;;;;;;;28.49;39.44;100771.13;5078646;28;1127;-24
2023/08/20 00:04:10;;;;;;;;;;;;;;;28.62;38.96;100775.84;5078475;28;1125;-27
2023/08/20 00:06:36;;;;;;;;;;;;;;;28.57;38.97;100767.47;5073867;28;1902;-26
2023/08/20 00:09:01;;;;;;;;;;;;;;;28.63;39.09;100779.41;5058622;28;1079;-27
2023/08/20 00:11:27;;;;;;;;;;;;;;;28.55;39.47;100777.63;5074338;28;1080;-29
2023/08/20 00:13:52;;;;;;;;;;;;;;;28.42;40.17;100772.91;5077927;28;1067;-30
2023/08/20 00:16:18;;;;;;;;;;;;;;;28.53;40.09;100775.13;5078058;28;1095;-24
2023/08/20 00:18:43;;;;;;;;;;;;;;;28.56;39.83;100782.03;5073448;28;1159;-27
2023/08/20 00:21:09;;;;;;;;;;;;;;;28.51;40.07;100779.06;5059986;28;1104;-25
2023/08/20 00:23:35;;;;;;;;;;;;;;;28.52;40.17;100778.00;5078361;28;1047;-24
2023/08/20 00:26:02;;;;;;;;;;;;;;;28.47;40.20;100784.84;5069928;28;1142;-25
2023/08/20 00:28:27;;;;;;;;;;;;;;;28.47;40.09;100789.41;5067072;28;1155;-25
2023/08/20 00:30:53;;;;;;;;;;;;;;;28.52;39.73;100783.44;5054282;28;1612;-30
2023/08/20 00:33:18;;;;;;;;;;;;;;;28.52;39.44;100783.44;5065679;28;1169;-27
2023/08/20 00:35:44;;;;;;;;;;;;;;;28.43;39.75;100780.84;5077677;28;921;-25
2023/08/20 00:38:09;;;;;;;;;;;;;;;28.51;39.71;100779.88;5060251;28;1261;-26
2023/08/20 00:40:35;;;;;;;;;;;;;;;28.46;39.86;100775.03;5077857;28;1079;-26
2023/08/20 00:43:01;;;;;;;;;;;;;;;28.52;39.61;100778.00;5070304;28;1043;-26
2023/08/20 00:45:26;;;;;;;;;;;;;;;28.43;40.01;100778.13;5071612;28;1048;-24
2023/08/20 00:47:52;;;;;;;;;;;;;;;28.46;39.71;100772.34;5060396;28;1985;-27
2023/08/20 00:50:18;;;;;;;;;;;;;;;28.34;40.15;100763.88;5045825;28;1111;-25
2023/08/20 00:52:43;;;;;;;;;;;;;;;28.51;39.83;100770.94;5060264;28;1135;-24
2023/08/20 00:55:09;;;;;;;;;;;;;;;28.54;39.79;100779.53;5070981;28;1121;-28
2023/08/20 00:57:38;;;;;;;;;;;;;;;28.49;39.98;100773.84;5046650;28;1176;-23
2023/08/20 01:00:09;;;;;;;;;;;;;;;28.43;40.02;100777.28;5077858;28;1248;-25
2023/08/20 01:02:35;;;;;;;;;;;;;;;28.38;39.02;100779.75;5078053;28;1135;-27
2023/08/20 01:05:00;;;;;;;;;;;;;;;28.39;39.67;100782.28;5059464;28;1106;-25
2023/08/20 01:07:39;;;;;;;;;;;;;;;28.50;39.24;100774.66;5051995;28;1906;-25
2023/08/20 01:10:10;;;;;;;;;;;;;;;28.56;39.43;100773.91;5039847;28;1195;-29
2023/08/20 01:12:35;;;;;;;;;;;;;;;28.54;39.53;100778.66;5050436;28;853;-25
2023/08/20 01:15:01;;;;;;;;;;;;;;;28.48;39.79;100781.09;5055315;28;1221;-24
2023/08/20 01:17:27;;;;;;;;;;;;;;;28.45;39.62;100775.25;5068210;28;1096;-24
2023/08/20 01:19:52;;;;;;;;;;;;;;;28.38;40.00;100777.06;5066374;28;1234;-28
2023/08/20 01:22:21;;;;;;;;;;;;;;;28.42;39.88;100776.47;5033784;28;1532;-25
2023/08/20 01:24:47;;;;;;;;;;;;;;;28.43;39.99;100771.88;5059420;28;1151;-25
2023/08/20 01:27:19;;;;;;;;;;;;;;;28.55;39.71;100775.78;5059014;28;1906;-25
2023/08/20 01:29:44;;;;;;;;;;;;;;;28.36;40.00;100775.34;5076476;28;1133;-25
2023/08/20 01:32:10;;;;;;;;;;;;;;;28.47;39.31;100774.03;5047151;28;906;-24
2023/08/20 01:34:36;;;;;;;;;;;;;;;28.38;39.63;100768.94;5056971;28;1115;-28
2023/08/20 01:37:02;;;;;;;;;;;;;;;28.46;39.82;100774.22;5058699;28;1187;-29
2023/08/20 01:39:27;;;;;;;;;;;;;;;28.41;39.69;100768.53;5076962;28;1171;-26
2023/08/20 01:41:52;;;;;;;;;;;;;;;28.35;39.20;100767.44;5058530;28;1130;-24
2023/08/20 01:44:18;;;;;;;;;;;;;;;28.31;39.74;100772.34;5063676;28;1091;-26
2023/08/20 01:46:43;;;;;;;;;;;;;;;28.38;39.33;100771.63;5049925;28;2750;-25
2023/08/20 01:49:09;;;;;;;;;;;;;;;28.50;39.22;100775.50;5058529;28;1126;-25
2023/08/20 01:51:36;;;;;;;;;;;;;;;28.53;39.32;100774.31;5076958;28;1146;-26
2023/08/20 01:54:02;;;;;;;;;;;;;;;28.59;39.30;100773.53;5076216;28;1099;-27
2023/08/20 01:56:27;;;;;;;;;;;;;;;28.42;39.28;100756.69;5063378;28;869;-25
2023/08/20 01:58:53;;;;;;;;;;;;;;;28.35;39.66;100762.88;5056685;28;1274;-24
2023/08/20 02:01:19;;;;;;;;;;;;;;;28.31;39.57;100758.00;5058868;28;1367;-28
2023/08/20 02:03:45;;;;;;;;;;;;;;;28.46;39.41;100760.69;5076198;28;1189;-25
2023/08/20 02:06:11;;;;;;;;;;;;;;;28.33;39.86;100755.97;5076150;28;1894;-24
2023/08/20 02:08:36;;;;;;;;;;;;;;;28.30;39.83;100748.19;5062088;28;1190;-27
2023/08/20 02:11:02;;;;;;;;;;;;;;;28.33;39.73;100754.09;5067973;28;1071;-27
2023/08/20 02:13:28;;;;;;;;;;;;;;;28.36;39.79;100758.31;5076254;28;1127;-24
2023/08/20 02:16:03;;;;;;;;;;;;;;;28.36;39.56;100755.59;5058692;28;1245;-26
2023/08/20 02:18:29;;;;;;;;;;;;;;;28.39;40.01;100754.38;5051385;28;1027;-26
2023/08/20 02:20:54;;;;;;;;;;;;;;;28.39;39.68;100751.66;5056043;28;877;-26
2023/08/20 02:23:19;;;;;;;;;;;;;;;28.40;39.64;100753.31;5056741;28;1147;-23
2023/08/20 02:25:46;;;;;;;;;;;;;;;28.17;40.16;100757.84;5068825;28;1167;-24
2023/08/20 02:28:11;;;;;;;;;;;;;;;28.24;39.96;100760.63;5058116;28;1922;-24
2023/08/20 02:30:41;;;;;;;;;;;;;;;28.23;40.21;100762.50;5076403;28;1062;-25
2023/08/20 02:33:07;;;;;;;;;;;;;;;28.24;40.02;100760.63;5059507;28;1218;-25
2023/08/20 02:35:32;;;;;;;;;;;;;;;28.29;39.77;100768.16;5069204;28;1160;-27
2023/08/20 02:37:57;;;;;;;;;;;;;;;28.21;39.85;100778.06;5075708;28;1063;-27
2023/08/20 02:40:23;;;;;;;;;;;;;;;28.32;40.01;100775.91;5075964;28;1192;-26
2023/08/20 02:42:48;;;;;;;;;;;;;;;28.26;39.83;100779.38;5057735;28;1120;-28
2023/08/20 02:45:14;;;;;;;;;;;;;;;28.21;40.09;100793.47;5059353;28;861;-28
2023/08/20 02:47:39;;;;;;;;;;;;;;;28.31;39.97;100790.47;5075443;28;1905;-27
2023/08/20 02:50:05;;;;;;;;;;;;;;;28.27;40.18;100789.16;5075566;28;1075;-27
2023/08/20 02:52:31;;;;;;;;;;;;;;;28.44;39.50;100792.50;5057745;28;1154;-26
2023/08/20 02:54:57;;;;;;;;;;;;;;;28.22;40.04;100784.31;5057774;28;1191;-25
2023/08/20 02:57:22;;;;;;;;;;;;;;;28.29;39.63;100785.25;5040765;28;1260;-26
2023/08/20 02:59:48;;;;;;;;;;;;;;;28.25;39.67;100781.22;5050379;28;1170;-26
2023/08/20 03:02:13;;;;;;;;;;;;;;;28.19;40.14;100782.00;5057376;28;1315;-26
2023/08/20 03:04:39;;;;;;;;;;;;;;;28.29;39.79;100787.09;5076459;28;1155;-29
2023/08/20 03:07:05;;;;;;;;;;;;;;;28.19;40.16;100782.00;5073456;28;1962;-26
2023/08/20 03:09:30;;;;;;;;;;;;;;;28.21;39.81;100783.47;5041435;28;1194;-24
2023/08/20 03:11:56;;;;;;;;;;;;;;;28.33;39.90;100781.16;5078949;28;1152;-27
2023/08/20 03:14:21;;;;;;;;;;;;;;;27.62;40.67;100783.31;5045785;28;2699;-23
2023/08/20 03:16:47;;;;;;;;;;;;;;;27.28;41.40;100776.56;5051405;28;2055;-22
2023/08/20 03:19:14;;;;;;;;;;;;;;;26.96;42.24;100773.13;5059103;28;2178;-22
2023/08/20 03:21:39;;;;;;;;;;;;;;;26.98;42.01;100771.06;5062856;28;1825;-24
2023/08/20 03:24:05;;;;;;;;;;;;;;;27.07;41.95;100779.97;5043027;28;2115;-23
2023/08/20 03:26:31;;;;;;;;;;;;;;;26.96;41.90;100771.25;5058946;28;2024;-23
2023/08/20 03:28:57;;;;;;;;;;;;;;;26.96;41.97;100776.63;5059127;28;2105;-24
2023/08/20 03:31:23;;;;;;;;;;;;;;;26.93;41.64;100782.41;5059834;28;1309;-22
2023/08/20 03:33:49;;;;;;;;;;;;;;;27.11;41.10;100774.00;5042681;28;1150;-23
2023/08/20 03:36:15;;;;;;;;;;;;;;;26.04;43.65;100773.66;5059402;28;1036;-22
2023/08/20 03:38:41;;;;;;;;;;;;;;;26.63;42.19;100766.94;5049105;28;1174;-23
2023/08/20 03:41:06;;;;;;;;;;;;;;;26.87;41.59;100772.34;5062103;28;1043;-23
2023/08/20 03:43:32;;;;;;;;;;;;;;;27.01;41.57;100768.88;5034604;28;1159;-25
2023/08/20 03:45:57;;;;;;;;;;;;;;;26.95;41.81;100768.72;5042007;28;1339;-22
2023/08/20 03:48:24;;;;;;;;;;;;;;;27.08;41.33;100774.38;5073058;28;1910;-23
2023/08/20 03:50:49;;;;;;;;;;;;;;;26.39;43.10;100766.06;5060929;28;1364;-25
2023/08/20 03:53:15;;;;;;;;;;;;;;;26.79;42.55;100775.94;5078331;28;1076;-23
2023/08/20 03:55:41;;;;;;;;;;;;;;;27.61;40.73;100783.50;5052880;28;1415;-23
2023/08/20 03:58:08;;;;;;;;;;;;;;;27.16;41.41;100784.25;5040031;28;2295;-22
2023/08/20 04:00:34;;;;;;;;;;;;;;;26.98;41.97;100785.41;5047824;28;1254;-25
2023/08/20 04:03:01;;;;;;;;;;;;;;;27.37;40.63;100771.94;5059013;28;1238;-23
2023/08/20 04:05:27;;;;;;;;;;;;;;;27.53;40.91;100765.50;5051134;28;1238;-23
2023/08/20 04:07:52;;;;;;;;;;;;;;;27.96;40.58;100767.56;5052516;28;1910;-25
2023/08/20 04:10:19;;;;;;;;;;;;;;;28.19;40.29;100766.63;5039531;28;1150;-28
2023/08/20 04:12:45;;;;;;;;;;;;;;;28.38;39.68;100780.56;5072207;28;1071;-27
2023/08/20 04:15:10;;;;;;;;;;;;;;;28.51;39.20;100765.53;5077020;28;1031;-28
2023/08/20 04:17:37;;;;;;;;;;;;;;;28.63;39.12;100769.38;5058802;28;1380;-25
2023/08/20 04:20:05;;;;;;;;;;;;;;;28.90;38.66;100772.34;5058523;28;1175;-24
2023/08/20 04:22:31;;;;;;;;;;;;;;;28.76;38.38;100768.66;5040431;28;1146;-25
2023/08/20 04:24:56;;;;;;;;;;;;;;;28.72;38.65;100768.25;5058972;28;1173;-25
2023/08/20 04:27:22;;;;;;;;;;;;;;;28.74;38.72;100776.16;5076888;28;1979;-26
2023/08/20 04:29:47;;;;;;;;;;;;;;;28.88;38.65;100770.88;5061734;28;2203;-25
2023/08/20 04:32:13;;;;;;;;;;;;;;;28.87;38.50;100775.44;5067480;28;1097;-25
2023/08/20 04:34:39;;;;;;;;;;;;;;;28.91;38.50;100775.91;5044280;28;1040;-26
2023/08/20 04:37:05;;;;;;;;;;;;;;;28.85;38.58;100772.09;5059133;28;1121;-27
2023/08/20 04:39:31;;;;;;;;;;;;;;;29.02;38.27;100783.53;5058593;28;1211;-27
2023/08/20 04:41:57;;;;;;;;;;;;;;;29.05;38.22;100777.72;5058709;28;1120;-27
2023/08/20 04:44:23;;;;;;;;;;;;;;;29.04;38.43;100786.03;5056741;28;1181;-25
2023/08/20 04:46:49;;;;;;;;;;;;;;;28.96;38.06;100776.97;5038333;28;1961;-25
2023/08/20 04:49:14;;;;;;;;;;;;;;;28.97;38.07;100783.28;5057954;28;1345;-25
2023/08/20 04:51:40;;;;;;;;;;;;;;;28.91;37.96;100778.59;5058674;28;1101;-25
2023/08/20 04:54:06;;;;;;;;;;;;;;;28.97;38.11;100772.44;5058561;28;1299;-26
2023/08/20 04:56:31;;;;;;;;;;;;;;;29.01;38.06;100779.13;5073862;28;1039;-25
2023/08/20 04:58:57;;;;;;;;;;;;;;;28.96;38.49;100779.69;4994714;28;1262818;-27
2023/08/20 05:01:42;;;;;;;;;;;;;;;28.82;38.04;100772.47;5023634;28;1185;-29
2023/08/20 05:04:09;;;;;;;;;;;;;;;28.81;37.36;100768.94;5059530;28;1310;-27
2023/08/20 05:06:34;;;;;;;;;;;;;;;28.87;37.58;100766.47;5058896;28;1898;-24
2023/08/20 05:09:00;;;;;;;;;;;;;;;29.01;36.99;100771.00;5054062;28;1107;-28
2023/08/20 05:11:25;;;;;;;;;;;;;;;28.99;37.16;100754.13;5054500;28;1310;-26
2023/08/20 05:13:51;;;;;;;;;;;;;;;28.91;37.42;100755.06;5077092;28;1147;-25
2023/08/20 05:16:17;;;;;;;;;;;;;;;28.72;37.49;100757.41;5059146;28;1153;-27
2023/08/20 05:18:44;;;;;;;;;;;;;;;28.56;36.50;100760.38;5058838;28;1113;-28
2023/08/20 05:21:13;;;;;;;;;;;;;;;28.27;36.24;100749.44;5052799;28;1143;-27
2023/08/20 05:23:40;;;;;;;;;;;;;;;28.53;37.02;100761.59;5042375;28;1199;-28
2023/08/20 05:26:06;;;;;;;;;;;;;;;28.64;37.37;100756.69;5042407;28;1231;-25
2023/08/20 05:28:32;;;;;;;;;;;;;;;28.58;37.03;100758.28;5053391;28;1902;-26
2023/08/20 05:30:57;;;;;;;;;;;;;;;28.34;37.14;100753.06;5053076;28;1981;-27
2023/08/20 05:33:23;;;;;;;;;;;;;;;28.35;36.35;100751.19;5051735;28;1063;-27
2023/08/20 05:35:49;;;;;;;;;;;;;;;28.25;36.93;100740.66;5040269;28;1118;-25
2023/08/20 05:38:15;;;;;;;;;;;;;;;28.27;37.11;100745.88;5059010;28;1338;-26
2023/08/20 05:40:41;;;;;;;;;;;;;;;28.32;37.04;100743.44;5058181;28;1347;-26
2023/08/20 05:43:06;;;;;;;;;;;;;;;28.58;36.47;100750.19;5058657;28;1126;-26
2023/08/20 05:45:32;;;;;;;;;;;;;;;28.66;36.81;100741.94;5068823;28;999;-26
2023/08/20 05:47:57;;;;;;;;;;;;;;;28.38;37.06;100739.19;5064731;28;1983;-27
2023/08/20 05:50:23;;;;;;;;;;;;;;;27.79;34.54;100742.63;5058500;28;1517;-26
2023/08/20 05:52:49;;;;;;;;;;;;;;;28.10;36.66;100740.69;5058413;28;1129;-27
2023/08/20 05:55:15;;;;;;;;;;;;;;;28.27;37.35;100740.47;5044920;28;1445;-29
2023/08/20 05:57:42;;;;;;;;;;;;;;;27.85;36.08;100741.03;5050289;28;1148;-26
2023/08/20 06:00:08;;;;;;;;;;;;;;;28.33;36.18;100740.56;5068142;28;2590;-26
2023/08/20 06:02:38;;;;;;;;;;;;;;;28.80;37.59;100742.91;5075766;28;1007;-29
2023/08/20 06:05:04;;;;;;;;;;;;;;;28.80;36.79;100742.06;5058301;28;1339;-26
2023/08/20 06:07:30;;;;;;;;;;;;;;;28.75;37.44;100737.22;5076244;28;1901;-24
2023/08/20 06:09:56;;;;;;;;;;;;;;;28.85;37.50;100745.00;5070960;28;1063;-27
2023/08/20 06:12:22;;;;;;;;;;;;;;;28.71;37.53;100747.59;5075925;28;1043;-26
2023/08/20 06:14:48;;;;;;;;;;;;;;;28.78;37.68;100744.97;5075719;28;1063;-28
2023/08/20 06:17:13;;;;;;;;;;;;;;;28.93;37.51;100738.63;5075384;28;1024;-25
2023/08/20 06:19:39;;;;;;;;;;;;;;;28.94;37.18;100746.56;5075326;28;1056;-25
2023/08/20 06:22:04;;;;;;;;;;;;;;;28.82;37.58;100745.41;5064922;28;1022;-27
2023/08/20 06:24:30;;;;;;;;;;;;;;;28.68;38.02;100747.16;5060012;28;1016;-26
2023/08/20 06:26:55;;;;;;;;;;;;;;;28.87;37.40;100744.81;5075521;28;1976;-27
2023/08/20 06:29:21;;;;;;;;;;;;;;;28.88;37.56;100743.81;5064128;28;2396;-25
2023/08/20 06:31:48;;;;;;;;;;;;;;;29.02;37.80;100742.91;5064390;28;1037;-28
2023/08/20 06:34:13;;;;;;;;;;;;;;;28.99;37.72;100743.31;5065473;28;1043;-26
2023/08/20 06:36:39;;;;;;;;;;;;;;;28.94;37.92;100743.00;5064285;28;1024;-26
2023/08/20 06:39:04;;;;;;;;;;;;;;;28.92;37.81;100742.38;5075527;28;1121;-25
2023/08/20 06:41:30;;;;;;;;;;;;;;;28.95;37.71;100736.56;5075355;28;996;-29
2023/08/20 06:43:55;;;;;;;;;;;;;;;28.99;37.38;100746.00;5061734;28;1130;-25
2023/08/20 06:46:21;;;;;;;;;;;;;;;29.06;37.31;100737.94;5064544;28;1967;-28
2023/08/20 06:48:46;;;;;;;;;;;;;;;28.97;37.52;100737.22;5056689;28;1301;-26
2023/08/20 06:51:12;;;;;;;;;;;;;;;28.92;37.73;100729.69;5063971;28;1183;-27
2023/08/20 06:53:37;;;;;;;;;;;;;;;29.04;37.40;100730.00;5074901;28;1003;-27
2023/08/20 06:56:03;;;;;;;;;;;;;;;29.06;37.54;100725.22;5075961;28;1048;-28
2023/08/20 06:58:29;;;;;;;;;;;;;;;29.04;37.45;100731.88;5063460;28;2411;-28
2023/08/20 07:00:55;;;;;;;;;;;;;;;29.07;37.38;100723.34;5075673;28;1007;-24
2023/08/20 07:03:20;;;;;;;;;;;;;;;28.81;37.66;100722.91;5075493;28;1027;-27
2023/08/20 07:05:46;;;;;;;;;;;;;;;28.60;35.33;100726.47;5075386;28;1114;-27
2023/08/20 07:08:11;;;;;;;;;;;;;;;28.85;36.71;100723.34;5074973;28;1914;-27
2023/08/20 07:10:37;;;;;;;;;;;;;;;28.83;37.23;100728.13;5064327;28;1430;-25
2023/08/20 07:13:02;;;;;;;;;;;;;;;29.03;36.92;100725.63;5057952;28;1203;-26
2023/08/20 07:15:28;;;;;;;;;;;;;;;28.86;37.56;100727.75;5055332;28;1160;-25
2023/08/20 07:17:53;;;;;;;;;;;;;;;28.81;37.66;100722.91;5055414;28;1058;-26
2023/08/20 07:20:19;;;;;;;;;;;;;;;28.74;37.75;100730.16;5055072;28;1023;-25
2023/08/20 07:22:44;;;;;;;;;;;;;;;29.02;37.22;100731.22;5055227;28;1040;-25
2023/08/20 07:25:10;;;;;;;;;;;;;;;28.86;37.60;100725.06;5055498;28;1029;-25
2023/08/20 07:27:35;;;;;;;;;;;;;;;28.88;37.65;100730.28;5054780;28;1906;-26
2023/08/20 07:30:00;;;;;;;;;;;;;;;28.85;37.75;100723.34;5055564;28;2210;-28
2023/08/20 07:32:26;;;;;;;;;;;;;;;28.88;37.73;100719.44;5055130;28;1112;-28
2023/08/20 07:34:51;;;;;;;;;;;;;;;28.54;34.89;100717.28;5054769;28;938;-28
2023/08/20 07:37:17;;;;;;;;;;;;;;;28.98;35.76;100714.53;5054114;28;997;-28
2023/08/20 07:39:42;;;;;;;;;;;;;;;29.00;37.31;100712.47;5054318;28;928;-27
2023/08/20 07:42:08;;;;;;;;;;;;;;;28.91;37.31;100713.63;5055039;28;978;-28
2023/08/20 07:44:34;;;;;;;;;;;;;;;28.58;34.73;100709.59;5055403;28;1015;-27
2023/08/20 07:46:59;;;;;;;;;;;;;;;28.87;36.65;100707.75;5054764;28;1979;-30
2023/08/20 07:49:25;;;;;;;;;;;;;;;28.93;37.02;100698.84;5054768;28;1020;-28
2023/08/20 07:51:52;;;;;;;;;;;;;;;29.11;36.75;100699.41;5056758;28;1041;-26
2023/08/20 07:54:17;;;;;;;;;;;;;;;29.01;37.24;100702.47;5058587;28;1044;-26
2023/08/20 07:56:43;;;;;;;;;;;;;;;29.05;37.22;100698.34;5058306;28;1084;-27
2023/08/20 07:59:09;;;;;;;;;;;;;;;29.16;36.70;100686.94;5048409;28;1876;-30
2023/08/20 08:01:34;;;;;;;;;;;;;;;29.21;36.58;100702.63;5055446;28;1044;-29
2023/08/20 08:04:00;;;;;;;;;;;;;;;29.14;37.08;100693.59;5058559;28;997;-27
2023/08/20 08:06:25;;;;;;;;;;;;;;;29.01;37.17;100689.75;5058289;28;1906;-26
2023/08/20 08:08:51;;;;;;;;;;;;;;;29.04;37.04;100688.53;5058617;28;1143;-25
2023/08/20 08:11:16;;;;;;;;;;;;;;;29.21;36.93;100689.91;5057464;28;1140;-25
2023/08/20 08:13:42;;;;;;;;;;;;;;;29.04;37.48;100692.09;5057821;28;1174;-27
2023/08/20 08:16:07;;;;;;;;;;;;;;;28.97;37.60;100693.91;5058172;28;1191;-30
2023/08/20 08:18:32;;;;;;;;;;;;;;;29.01;37.46;100686.25;5058004;28;1215;-26
2023/08/20 08:20:58;;;;;;;;;;;;;;;28.95;37.80;100690.53;5058131;28;1120;-25
2023/08/20 08:23:23;;;;;;;;;;;;;;;29.13;37.42;100681.94;5058111;28;965;-25
2023/08/20 08:25:49;;;;;;;;;;;;;;;29.07;37.74;100680.88;5057430;28;1052;-28
2023/08/20 08:28:15;;;;;;;;;;;;;;;29.28;37.17;100689.13;5057923;28;1944;-28
2023/08/20 08:30:40;;;;;;;;;;;;;;;29.33;36.92;100694.75;5057871;28;1076;-27
2023/08/20 08:33:06;;;;;;;;;;;;;;;29.29;37.04;100696.19;5057578;28;1035;-27
2023/08/20 08:35:31;;;;;;;;;;;;;;;29.42;36.93;100676.47;5057526;28;892;-27
2023/08/20 08:37:57;;;;;;;;;;;;;;;29.28;36.90;100689.13;5057809;28;1080;-26
2023/08/20 08:40:23;;;;;;;;;;;;;;;29.27;37.18;100674.72;5057183;28;1000;-26
2023/08/20 08:42:50;;;;;;;;;;;;;;;29.23;36.56;100678.84;5039679;28;1073;-26
2023/08/20 08:45:16;;;;;;;;;;;;;;;29.27;37.07;100679.31;5057475;28;1132;-25
2023/08/20 08:47:41;;;;;;;;;;;;;;;29.25;37.23;100684.06;5039614;28;1922;-25
2023/08/20 08:50:07;;;;;;;;;;;;;;;29.27;37.26;100687.44;5057627;28;1084;-26
2023/08/20 08:52:33;;;;;;;;;;;;;;;29.39;36.86;100685.00;5039850;28;1232;-31
2023/08/20 08:54:58;;;;;;;;;;;;;;;29.38;36.57;100678.75;5038958;28;1025;-27
2023/08/20 08:57:24;;;;;;;;;;;;;;;29.24;36.58;100680.56;5056975;28;1104;-29
2023/08/20 08:59:49;;;;;;;;;;;;;;;29.43;36.52;100676.25;5055685;28;2040;-26
2023/08/20 09:02:16;;;;;;;;;;;;;;;29.49;36.29;100679.22;5056374;28;1068;-26
2023/08/20 09:04:41;;;;;;;;;;;;;;;28.21;33.16;100667.16;5039263;28;1068;-26
2023/08/20 09:07:13;;;;;;;;;;;;;;;28.89;33.86;100684.03;5057263;28;1910;-30
2023/08/20 09:09:42;;;;;;;;;;;;;;;29.02;35.86;100666.22;5056864;28;1171;-27
2023/08/20 09:12:17;;;;;;;;;;;;;;;29.14;36.01;100669.22;5052415;28;854;-28
2023/08/20 09:14:46;;;;;;;;;;;;;;;29.31;35.80;100675.19;5056847;28;1064;-25
2023/08/20 09:17:12;;;;;;;;;;;;;;;29.37;35.44;100677.06;5057301;28;1060;-28
2023/08/20 09:19:38;;;;;;;;;;;;;;;29.38;35.66;100677.91;5057071;28;1059;-30
2023/08/20 09:22:03;;;;;;;;;;;;;;;29.38;35.58;100673.31;5056027;28;1020;-27
2023/08/20 09:24:34;;;;;;;;;;;;;;;29.23;36.37;100681.56;5056421;28;864;-27
2023/08/20 09:26:59;;;;;;;;;;;;;;;29.25;36.33;100674.09;5056540;28;1971;-30
2023/08/20 09:29:25;;;;;;;;;;;;;;;29.22;34.53;100666.34;5047096;28;1983;-30
2023/08/20 09:31:50;;;;;;;;;;;;;;;29.27;35.83;100665.75;5057173;28;1028;-29
2023/08/20 09:34:16;;;;;;;;;;;;;;;29.27;35.79;100666.59;5039158;28;1150;-27
2023/08/20 09:36:41;;;;;;;;;;;;;;;29.37;36.75;100665.38;5056553;28;995;-29
2023/08/20 09:39:06;;;;;;;;;;;;;;;29.38;37.21;100672.50;5038569;28;1349;-29
2023/08/20 09:41:32;;;;;;;;;;;;;;;29.12;37.75;100668.59;5053018;28;1016;-27
2023/08/20 09:43:58;;;;;;;;;;;;;;;29.13;38.28;100667.56;5053512;28;1095;-32
2023/08/20 09:46:27;;;;;;;;;;;;;;;29.24;38.00;100664.28;5053166;28;1119;-31
2023/08/20 09:48:54;;;;;;;;;;;;;;;29.28;37.90;100667.44;5066272;28;958;-31
2023/08/20 09:51:27;;;;;;;;;;;;;;;29.31;38.03;100657.03;5040998;28;1459;-31
2023/08/20 09:54:16;;;;;;;;;;;;;;;29.39;37.67;100664.16;5055837;28;1036;-28
2023/08/20 09:56:41;;;;;;;;;;;;;;;29.24;38.44;100660.75;5038594;28;984;-28
2023/08/20 09:59:07;;;;;;;;;;;;;;;29.14;38.92;100653.81;5038326;28;1890;-30
2023/08/20 10:01:33;;;;;;;;;;;;;;;29.21;38.54;100662.00;5056241;28;1008;-31
2023/08/20 10:03:58;;;;;;;;;;;;;;;29.21;38.98;100654.69;5056048;28;1011;-29
2023/08/20 10:06:24;;;;;;;;;;;;;;;29.17;39.39;100655.28;5038428;28;1176;-27
2023/08/20 10:08:50;;;;;;;;;;;;;;;29.24;39.10;100653.47;5051308;28;1135;-28
2023/08/20 10:11:16;;;;;;;;;;;;;;;29.32;39.30;100645.16;5055906;28;1099;-27
2023/08/20 10:13:41;;;;;;;;;;;;;;;29.69;38.13;100661.22;5055334;28;1057;-29
2023/08/20 10:16:07;;;;;;;;;;;;;;;29.51;38.91;100658.19;5056373;28;1156;-30
2023/08/20 10:18:34;;;;;;;;;;;;;;;29.79;39.00;100674.38;5056030;28;1455;-30
2023/08/20 10:21:00;;;;;;;;;;;;;;;28.44;33.96;100674.31;5056267;28;1039;-29
2023/08/20 10:23:26;;;;;;;;;;;;;;;28.03;33.41;100664.09;5055622;28;1056;-29
2023/08/20 10:25:52;;;;;;;;;;;;;;;28.07;32.90;100668.91;5056145;28;1065;-27
2023/08/20 10:28:26;;;;;;;;;;;;;;;27.95;32.51;100665.03;5055720;28;1956;-28
2023/08/20 10:31:07;;;;;;;;;;;;;;;27.83;32.32;100662.81;5061857;28;1107;-29
2023/08/20 10:33:37;;;;;;;;;;;;;;;28.57;34.07;100649.22;5059944;28;987;-25
2023/08/20 10:36:28;;;;;;;;;;;;;;;29.02;35.45;100648.13;5055714;28;851;-28
2023/08/20 10:38:58;;;;;;;;;;;;;;;29.45;35.09;100652.53;5051912;28;1423;-29
2023/08/20 10:41:27;;;;;;;;;;;;;;;29.54;35.10;100660.47;5055700;28;1116;-27
2023/08/20 10:43:53;;;;;;;;;;;;;;;29.62;35.69;100673.03;5042956;28;1013;-28
2023/08/20 10:46:25;;;;;;;;;;;;;;;29.70;36.01;100664.72;5055471;28;1093;-27
2023/08/20 10:48:54;;;;;;;;;;;;;;;29.88;35.77;100657.94;5048356;28;1975;-26
2023/08/20 10:51:20;;;;;;;;;;;;;;;29.95;35.31;100658.75;5062603;28;1121;-28
2023/08/20 10:53:50;;;;;;;;;;;;;;;29.74;36.72;100660.59;5055313;28;1177;-29
2023/08/20 10:56:16;;;;;;;;;;;;;;;29.72;36.46;100653.69;5037821;28;1189;-29
2023/08/20 10:58:43;;;;;;;;;;;;;;;29.63;36.79;100662.00;5055287;28;1907;-26
2023/08/20 11:01:21;;;;;;;;;;;;;;;29.60;37.05;100659.69;5054997;28;911;-26
2023/08/20 11:03:48;;;;;;;;;;;;;;;29.45;37.53;100659.81;5055206;28;1202;-28
2023/08/20 11:06:14;;;;;;;;;;;;;;;29.51;38.00;100653.56;5055345;28;1039;-29
2023/08/20 11:08:42;;;;;;;;;;;;;;;29.63;35.25;100653.88;5055058;28;1914;-27
2023/08/20 11:11:08;;;;;;;;;;;;;;;29.03;32.48;100648.97;5055208;28;1076;-29
2023/08/20 11:13:34;;;;;;;;;;;;;;;28.69;32.33;100657.66;5054941;28;934;-28
2023/08/20 11:16:00;;;;;;;;;;;;;;;28.99;32.09;100658.50;5055053;28;1044;-28
2023/08/20 11:18:25;;;;;;;;;;;;;;;29.43;34.77;100642.91;5055502;28;1160;-23
2023/08/20 11:20:51;;;;;;;;;;;;;;;29.51;35.38;100639.19;5055765;28;1115;-25
2023/08/20 11:23:17;;;;;;;;;;;;;;;29.09;35.01;100640.84;5055511;28;1099;-25
2023/08/20 11:25:43;;;;;;;;;;;;;;;27.70;33.14;100649.16;5055943;28;984;-24
2023/08/20 11:28:08;;;;;;;;;;;;;;;27.48;32.92;100649.91;5057774;28;1917;-28
2023/08/20 11:30:34;;;;;;;;;;;;;;;27.82;32.10;100638.69;5051303;28;1095;-26
2023/08/20 11:32:59;;;;;;;;;;;;;;;27.34;32.56;100631.84;5058605;28;1152;-27
2023/08/20 11:35:25;;;;;;;;;;;;;;;27.33;32.63;100628.31;5058719;28;1051;-30
2023/08/20 11:37:51;;;;;;;;;;;;;;;27.92;32.36;100639.22;5058990;28;1051;-27
2023/08/20 11:40:17;;;;;;;;;;;;;;;28.71;34.34;100644.75;5059192;28;1116;-29
2023/08/20 11:42:42;;;;;;;;;;;;;;;29.10;34.39;100636.28;5058471;28;1004;-26
2023/08/20 11:45:09;;;;;;;;;;;;;;;29.29;34.48;100634.75;5059031;28;1067;-30
2023/08/20 11:47:39;;;;;;;;;;;;;;;29.31;34.72;100627.22;5058244;28;1983;-27
2023/08/20 11:50:04;;;;;;;;;;;;;;;29.37;34.98;100625.59;5058872;28;1048;-29
2023/08/20 11:52:31;;;;;;;;;;;;;;;29.44;35.29;100623.75;5058447;28;1084;-26
2023/08/20 11:54:56;;;;;;;;;;;;;;;29.49;35.38;100615.03;5058544;28;910;-26
2023/08/20 11:57:22;;;;;;;;;;;;;;;29.50;35.44;100605.84;5058465;28;1051;-29
2023/08/20 11:59:47;;;;;;;;;;;;;;;29.43;35.81;100619.38;5056253;28;2186;-30
2023/08/20 12:02:13;;;;;;;;;;;;;;;29.45;35.67;100611.03;5058318;28;1123;-26
2023/08/20 12:04:38;;;;;;;;;;;;;;;29.53;36.26;100610.84;5058190;28;1040;-29
2023/08/20 12:07:05;;;;;;;;;;;;;;;29.55;36.27;100626.91;5057894;28;2001;-29
2023/08/20 12:09:30;;;;;;;;;;;;;;;29.76;36.23;100615.13;5058348;28;1048;-27
2023/08/20 12:11:56;;;;;;;;;;;;;;;29.68;36.19;100613.44;5057893;28;1044;-26
2023/08/20 12:14:21;;;;;;;;;;;;;;;29.64;36.32;100611.34;5058541;28;1132;-27
2023/08/20 12:16:47;;;;;;;;;;;;;;;29.63;36.61;100612.38;5058487;28;1143;-31
2023/08/20 12:19:13;;;;;;;;;;;;;;;29.58;37.01;100611.06;5058340;28;1072;-27
2023/08/20 12:21:39;;;;;;;;;;;;;;;29.63;36.93;100612.38;5058021;28;957;-26
2023/08/20 12:24:05;;;;;;;;;;;;;;;29.58;37.27;100602.94;5057792;28;1068;-28
2023/08/20 12:26:30;;;;;;;;;;;;;;;29.61;37.08;100601.75;5057925;28;1902;-26
2023/08/20 12:28:56;;;;;;;;;;;;;;;29.66;36.83;100612.78;5049906;28;1921;-28
2023/08/20 12:31:21;;;;;;;;;;;;;;;29.73;37.13;100622.84;5056311;28;1067;-27
2023/08/20 12:33:46;;;;;;;;;;;;;;;29.68;37.24;100613.44;5058519;28;1143;-29
2023/08/20 12:36:12;;;;;;;;;;;;;;;29.73;37.45;100612.81;5057305;28;1123;-26
2023/08/20 12:38:37;;;;;;;;;;;;;;;29.71;37.47;100612.22;5057631;28;1025;-26
2023/08/20 12:41:05;;;;;;;;;;;;;;;29.75;37.39;100609.91;5058118;28;1048;-29
2023/08/20 12:43:30;;;;;;;;;;;;;;;29.76;37.12;100603.44;5057752;28;1104;-27